createdAt,value
2019-03-08T00:00:53.425Z,994.73
2019-03-08T00:01:53.396Z,994.61
2019-03-08T00:02:53.382Z,994.60
2019-03-08T00:03:53.368Z,994.65
2019-03-08T00:04:53.363Z,994.82
2019-03-08T00:05:53.368Z,994.74
2019-03-08T00:06:53.340Z,994.74
2019-03-08T00:07:53.337Z,994.70
2019-03-08T00:08:53.324Z,994.69
2019-03-08T00:09:53.309Z,994.82
2019-03-08T00:10:53.312Z,994.66
2019-03-08T00:11:53.276Z,994.75
2019-03-08T00:12:53.284Z,994.60
2019-03-08T00:13:53.274Z,994.70
2019-03-08T00:14:53.250Z,994.65
2019-03-08T00:15:53.291Z,994.75
2019-03-08T00:16:53.227Z,994.65
2019-03-08T00:17:53.221Z,994.63
2019-03-08T00:18:53.217Z,994.71
2019-03-08T00:19:53.195Z,994.70
2019-03-08T00:20:53.190Z,994.74
2019-03-08T00:21:53.186Z,994.56
2019-03-08T00:22:53.195Z,994.66
2019-03-08T00:23:53.152Z,994.49
2019-03-08T00:24:53.155Z,994.50
2019-03-08T00:25:53.153Z,994.54
2019-03-08T00:26:53.143Z,994.54
2019-03-08T00:27:53.099Z,994.51
2019-03-08T00:28:53.101Z,994.46
2019-03-08T00:29:53.087Z,994.45
2019-03-08T00:30:53.081Z,994.52
2019-03-08T00:31:53.077Z,994.52
2019-03-08T00:32:53.085Z,994.57
2019-03-08T00:33:53.071Z,994.50
2019-03-08T00:34:53.025Z,994.54
2019-03-08T00:35:53.021Z,994.60
2019-03-08T00:36:53.031Z,994.33
2019-03-08T00:37:53.016Z,994.46
2019-03-08T00:38:53.009Z,994.52
2019-03-08T00:39:52.977Z,994.53
2019-03-08T00:40:52.964Z,994.47
2019-03-08T00:41:52.979Z,994.42
2019-03-08T00:42:52.943Z,994.46
2019-03-08T00:43:52.938Z,994.35
2019-03-08T00:44:52.915Z,994.60
2019-03-08T00:45:52.914Z,994.58
2019-03-08T00:46:52.897Z,994.48
2019-03-08T00:47:52.903Z,994.48
2019-03-08T00:48:52.878Z,994.70
2019-03-08T00:49:52.864Z,994.65
2019-03-08T00:50:52.858Z,994.46
2019-03-08T00:51:52.834Z,994.62
2019-03-08T00:52:52.849Z,994.61
2019-03-08T00:53:52.816Z,994.63
2019-03-08T00:54:52.813Z,994.66
2019-03-08T00:55:52.790Z,994.43
2019-03-08T00:56:52.786Z,994.46
2019-03-08T00:57:52.782Z,994.43
2019-03-08T00:58:52.759Z,994.43
2019-03-08T00:59:52.761Z,994.39
2019-03-08T01:00:52.750Z,994.39
2019-03-08T01:01:52.745Z,994.43
2019-03-08T01:02:52.741Z,994.33
2019-03-08T01:03:52.717Z,994.43
2019-03-08T01:04:52.701Z,994.39
2019-03-08T01:05:52.697Z,994.41
2019-03-08T01:06:52.676Z,994.41
2019-03-08T01:07:52.659Z,994.45
2019-03-08T01:08:52.777Z,994.37
2019-03-08T01:09:52.640Z,994.38
2019-03-08T01:10:52.690Z,994.45
2019-03-08T01:11:52.627Z,994.45
2019-03-08T01:12:52.604Z,994.46
2019-03-08T01:13:52.613Z,994.42
2019-03-08T01:14:52.588Z,994.29
2019-03-08T01:15:52.580Z,994.56
2019-03-08T01:16:52.573Z,994.30
2019-03-08T01:17:52.555Z,994.33
2019-03-08T01:18:52.566Z,994.34
2019-03-08T01:19:52.533Z,994.33
2019-03-08T01:20:52.522Z,994.28
2019-03-08T01:21:52.508Z,994.27
2019-03-08T01:22:52.514Z,994.32
2019-03-08T01:23:52.499Z,994.38
2019-03-08T01:24:52.487Z,994.20
2019-03-08T01:25:52.479Z,994.28
2019-03-08T01:26:52.452Z,994.33
2019-03-08T01:27:52.456Z,994.12
2019-03-08T01:28:52.439Z,994.33
2019-03-08T01:29:52.457Z,994.19
2019-03-08T01:30:52.406Z,994.18
2019-03-08T01:31:53.446Z,994.26
2019-03-08T01:32:52.388Z,994.16
2019-03-08T01:33:52.383Z,994.10
2019-03-08T01:34:52.407Z,994.25
2019-03-08T01:35:52.351Z,994.12
2019-03-08T01:36:52.356Z,994.08
2019-03-08T01:37:52.338Z,994.06
2019-03-08T01:38:52.353Z,994.23
2019-03-08T01:39:52.321Z,994.23
2019-03-08T01:40:52.310Z,994.24
2019-03-08T01:41:52.290Z,994.26
2019-03-08T01:42:52.276Z,994.17
2019-03-08T01:43:52.266Z,994.18
2019-03-08T01:44:52.262Z,994.16
2019-03-08T01:45:52.262Z,994.06
2019-03-08T01:46:52.233Z,993.95
2019-03-08T01:47:52.229Z,994.12
2019-03-08T01:48:52.217Z,994.11
2019-03-08T01:49:52.215Z,993.91
2019-03-08T01:50:52.213Z,994.04
2019-03-08T01:51:52.167Z,994.03
2019-03-08T01:52:52.161Z,993.93
2019-03-08T01:53:52.159Z,993.91
2019-03-08T01:54:52.144Z,993.91
2019-03-08T01:55:52.200Z,993.95
2019-03-08T01:56:52.123Z,994.00
2019-03-08T01:57:52.115Z,993.95
2019-03-08T01:58:52.097Z,993.89
2019-03-08T01:59:52.089Z,994.11
2019-03-08T02:00:52.071Z,994.09
2019-03-08T02:01:52.078Z,994.08
2019-03-08T02:02:52.070Z,993.91
2019-03-08T02:03:52.044Z,993.89
2019-03-08T02:04:52.032Z,994.04
2019-03-08T02:05:52.031Z,994.08
2019-03-08T02:06:52.041Z,993.94
2019-03-08T02:07:51.999Z,993.97
2019-03-08T02:08:51.986Z,993.77
2019-03-08T02:09:51.981Z,993.89
2019-03-08T02:10:51.967Z,993.80
2019-03-08T02:11:51.977Z,993.73
2019-03-08T02:12:51.941Z,993.76
2019-03-08T02:13:51.928Z,993.88
2019-03-08T02:14:51.914Z,993.69
2019-03-08T02:15:51.904Z,993.72
2019-03-08T02:16:51.927Z,994.05
2019-03-08T02:17:51.909Z,993.66
2019-03-08T02:18:51.887Z,993.72
2019-03-08T02:19:51.859Z,993.62
2019-03-08T02:20:52.373Z,993.67
2019-03-08T02:21:51.846Z,993.68
2019-03-08T02:22:51.855Z,993.69
2019-03-08T02:23:51.821Z,993.75
2019-03-08T02:24:51.811Z,993.79
2019-03-08T02:25:51.798Z,993.73
2019-03-08T02:26:51.790Z,993.76
2019-03-08T02:27:51.791Z,993.71
2019-03-08T02:28:51.776Z,993.70
2019-03-08T02:29:51.762Z,993.77
2019-03-08T02:30:51.733Z,993.59
2019-03-08T02:31:51.730Z,993.60
2019-03-08T02:32:51.738Z,993.57
2019-03-08T02:33:51.725Z,993.52
2019-03-08T02:34:51.698Z,993.48
2019-03-08T02:35:51.705Z,993.71
2019-03-08T02:36:51.676Z,993.62
2019-03-08T02:37:51.692Z,993.61
2019-03-08T02:38:51.654Z,993.50
2019-03-08T02:39:51.645Z,993.47
2019-03-08T02:40:51.634Z,993.39
2019-03-08T02:41:51.622Z,993.60
2019-03-08T02:42:51.651Z,993.54
2019-03-08T02:43:51.601Z,993.66
2019-03-08T02:44:51.601Z,993.52
2019-03-08T02:45:51.576Z,993.56
2019-03-08T02:46:51.577Z,993.56
2019-03-08T02:47:51.566Z,993.56
2019-03-08T02:48:51.562Z,993.55
2019-03-08T02:49:51.535Z,993.67
2019-03-08T02:50:51.518Z,993.66
2019-03-08T02:51:51.521Z,993.46
2019-03-08T02:52:51.502Z,993.53
2019-03-08T02:53:51.504Z,993.57
2019-03-08T02:54:51.472Z,993.58
2019-03-08T02:55:51.477Z,993.58
2019-03-08T02:56:51.473Z,993.51
2019-03-08T02:57:51.446Z,993.51
2019-03-08T02:58:51.460Z,993.58
2019-03-08T02:59:51.418Z,993.35
2019-03-08T03:00:51.408Z,993.40
2019-03-08T03:01:51.412Z,993.39
2019-03-08T03:02:51.389Z,993.42
2019-03-08T03:03:51.397Z,993.31
2019-03-08T03:04:51.361Z,993.32
2019-03-08T03:05:51.359Z,993.54
2019-03-08T03:06:51.351Z,993.40
2019-03-08T03:07:51.392Z,993.44
2019-03-08T03:08:51.345Z,993.55
2019-03-08T03:09:51.306Z,993.48
2019-03-08T03:10:51.295Z,993.58
2019-03-08T03:11:51.290Z,993.47
2019-03-08T03:12:51.273Z,993.47
2019-03-08T03:13:51.291Z,993.43
2019-03-08T03:14:51.260Z,993.39
2019-03-08T03:15:51.242Z,993.46
2019-03-08T03:16:51.226Z,993.52
2019-03-08T03:17:51.230Z,993.42
2019-03-08T03:18:51.223Z,993.41
2019-03-08T03:19:51.194Z,993.53
2019-03-08T03:20:51.187Z,993.47
2019-03-08T03:21:51.188Z,993.39
2019-03-08T03:22:51.173Z,993.48
2019-03-08T03:23:51.165Z,993.47
2019-03-08T03:24:51.145Z,993.36
2019-03-08T03:25:51.129Z,993.44
2019-03-08T03:26:51.119Z,993.44
2019-03-08T03:27:51.109Z,993.40
2019-03-08T03:28:51.115Z,993.35
2019-03-08T03:29:51.089Z,993.41
2019-03-08T03:30:51.092Z,993.44
2019-03-08T03:31:51.072Z,993.37
2019-03-08T03:32:51.074Z,993.26
2019-03-08T03:33:51.063Z,993.31
2019-03-08T03:34:51.033Z,993.36
2019-03-08T03:35:51.017Z,993.45
2019-03-08T03:36:51.014Z,993.27
2019-03-08T03:37:51.015Z,993.36
2019-03-08T03:38:51.030Z,993.38
2019-03-08T03:39:50.985Z,993.31
2019-03-08T03:40:50.976Z,993.32
2019-03-08T03:41:50.958Z,993.21
2019-03-08T03:42:50.987Z,993.23
2019-03-08T03:43:50.946Z,993.36
2019-03-08T03:44:50.937Z,993.21
2019-03-08T03:45:50.920Z,993.19
2019-03-08T03:46:50.911Z,993.34
2019-03-08T03:47:50.894Z,993.27
2019-03-08T03:48:50.877Z,993.32
2019-03-08T03:49:50.879Z,993.16
2019-03-08T03:50:50.870Z,993.19
2019-03-08T03:51:50.846Z,993.09
2019-03-08T03:52:50.834Z,993.20
2019-03-08T03:53:50.837Z,993.09
2019-03-08T03:54:50.832Z,993.08
2019-03-08T03:55:50.812Z,993.14
2019-03-08T03:56:50.787Z,993.13
2019-03-08T03:57:50.780Z,992.99
2019-03-08T03:58:50.772Z,993.13
2019-03-08T03:59:50.771Z,993.28
2019-03-08T04:00:50.745Z,993.14
2019-03-08T04:01:50.736Z,993.17
2019-03-08T04:02:50.737Z,993.06
2019-03-08T04:03:50.706Z,993.14
2019-03-08T04:04:50.718Z,993.04
2019-03-08T04:05:50.690Z,993.18
2019-03-08T04:06:50.682Z,993.09
2019-03-08T04:07:50.680Z,993.14
2019-03-08T04:08:50.671Z,993.00
2019-03-08T04:09:50.658Z,993.32
2019-03-08T04:10:50.627Z,993.21
2019-03-08T04:11:50.629Z,993.28
2019-03-08T04:12:50.622Z,993.04
2019-03-08T04:13:50.613Z,993.21
2019-03-08T04:14:50.606Z,993.23
2019-03-08T04:15:50.587Z,993.14
2019-03-08T04:16:50.572Z,993.06
2019-03-08T04:17:50.564Z,993.18
2019-03-08T04:18:50.542Z,993.07
2019-03-08T04:19:50.556Z,993.21
2019-03-08T04:20:50.526Z,992.99
2019-03-08T04:21:50.522Z,992.99
2019-03-08T04:22:50.499Z,993.00
2019-03-08T04:23:50.498Z,993.03
2019-03-08T04:24:50.507Z,993.12
2019-03-08T04:25:50.464Z,993.12
2019-03-08T04:26:50.456Z,993.03
2019-03-08T04:27:50.439Z,992.89
2019-03-08T04:28:50.438Z,993.05
2019-03-08T04:29:50.435Z,993.06
2019-03-08T04:30:50.430Z,992.97
2019-03-08T04:31:50.393Z,992.98
2019-03-08T04:32:50.396Z,993.09
2019-03-08T04:33:50.380Z,993.15
2019-03-08T04:34:50.382Z,993.14
2019-03-08T04:35:50.381Z,993.04
2019-03-08T04:36:50.348Z,992.94
2019-03-08T04:37:50.334Z,992.93
2019-03-08T04:38:50.329Z,992.80
2019-03-08T04:39:50.309Z,992.81
2019-03-08T04:40:50.313Z,992.96
2019-03-08T04:41:50.296Z,992.85
2019-03-08T04:42:50.271Z,992.90
2019-03-08T04:43:50.287Z,992.79
2019-03-08T04:44:50.246Z,992.82
2019-03-08T04:45:50.263Z,992.77
2019-03-08T04:46:50.246Z,992.83
2019-03-08T04:47:50.247Z,992.92
2019-03-08T04:48:50.211Z,992.83
2019-03-08T04:49:50.199Z,992.77
2019-03-08T04:50:50.220Z,992.98
2019-03-08T04:51:50.193Z,992.84
2019-03-08T04:52:50.170Z,992.99
2019-03-08T04:53:50.157Z,992.93
2019-03-08T04:54:50.148Z,992.82
2019-03-08T04:55:50.146Z,992.91
2019-03-08T04:56:50.123Z,992.95
2019-03-08T04:57:50.121Z,992.84
2019-03-08T04:58:50.111Z,993.08
2019-03-08T04:59:50.093Z,992.95
2019-03-08T05:00:50.128Z,992.98
2019-03-08T05:01:50.067Z,992.97
2019-03-08T05:02:50.061Z,992.86
2019-03-08T05:03:50.047Z,992.86
2019-03-08T05:04:50.043Z,992.86
2019-03-08T05:05:50.029Z,992.83
2019-03-08T05:06:50.043Z,992.83
2019-03-08T05:07:50.014Z,992.74
2019-03-08T05:08:49.997Z,992.78
2019-03-08T05:09:49.992Z,992.78
2019-03-08T05:10:49.976Z,992.78
2019-03-08T05:11:49.981Z,992.82
2019-03-08T05:12:49.949Z,992.89
2019-03-08T05:13:49.941Z,992.71
2019-03-08T05:14:49.942Z,992.74
2019-03-08T05:15:49.923Z,992.82
2019-03-08T05:16:49.927Z,992.83
2019-03-08T05:17:49.895Z,992.88
2019-03-08T05:18:49.885Z,992.71
2019-03-08T05:19:49.865Z,992.79
2019-03-08T05:20:49.857Z,992.76
2019-03-08T05:21:49.904Z,992.76
2019-03-08T05:22:49.840Z,992.89
2019-03-08T05:23:49.834Z,992.68
2019-03-08T05:24:49.842Z,992.73
2019-03-08T05:25:49.814Z,992.83
2019-03-08T05:26:49.801Z,992.66
2019-03-08T05:27:49.813Z,992.75
2019-03-08T05:28:49.772Z,992.69
2019-03-08T05:29:49.769Z,992.89
2019-03-08T05:30:49.743Z,992.91
2019-03-08T05:31:49.738Z,992.65
2019-03-08T05:32:49.740Z,992.71
2019-03-08T05:33:49.720Z,992.73
2019-03-08T05:34:49.704Z,992.85
2019-03-08T05:35:49.690Z,992.84
2019-03-08T05:36:49.682Z,992.95
2019-03-08T05:37:49.686Z,992.87
2019-03-08T05:38:49.674Z,992.88
2019-03-08T05:39:49.654Z,992.84
2019-03-08T05:40:49.632Z,992.91
2019-03-08T05:41:49.620Z,992.95
2019-03-08T05:42:49.637Z,992.92
2019-03-08T05:43:49.612Z,992.79
2019-03-08T05:44:49.612Z,992.95
2019-03-08T05:45:49.592Z,992.90
2019-03-08T05:46:49.571Z,992.93
2019-03-08T05:47:49.598Z,993.04
2019-03-08T05:48:49.549Z,992.92
2019-03-08T05:49:49.550Z,992.89
2019-03-08T05:50:49.534Z,992.92
2019-03-08T05:51:49.510Z,992.88
2019-03-08T05:52:49.537Z,992.97
2019-03-08T05:53:49.492Z,992.94
2019-03-08T05:54:49.481Z,993.02
2019-03-08T05:55:49.474Z,992.87
2019-03-08T05:56:49.472Z,993.08
2019-03-08T05:57:49.476Z,993.11
2019-03-08T05:58:49.449Z,993.00
2019-03-08T05:59:49.427Z,993.04
2019-03-08T06:00:49.430Z,993.15
2019-03-08T06:01:49.406Z,993.10
2019-03-08T06:02:49.428Z,992.98
2019-03-08T06:03:49.388Z,992.92
2019-03-08T06:04:49.416Z,993.05
2019-03-08T06:05:49.373Z,992.82
2019-03-08T06:06:49.375Z,993.01
2019-03-08T06:07:49.360Z,993.06
2019-03-08T06:08:49.315Z,993.02
2019-03-08T06:09:49.315Z,993.21
2019-03-08T06:10:49.310Z,993.05
2019-03-08T06:11:49.310Z,993.11
2019-03-08T06:12:49.300Z,993.10
2019-03-08T06:13:49.285Z,993.22
2019-03-08T06:14:49.275Z,993.41
2019-03-08T06:15:49.261Z,993.11
2019-03-08T06:16:49.253Z,993.34
2019-03-08T06:17:49.244Z,993.36
2019-03-08T06:18:49.240Z,993.27
2019-03-08T06:19:49.213Z,993.28
2019-03-08T06:20:49.195Z,993.34
2019-03-08T06:21:49.183Z,993.10
2019-03-08T06:22:49.195Z,993.16
2019-03-08T06:23:49.173Z,993.29
2019-03-08T06:24:49.165Z,993.17
2019-03-08T06:25:49.136Z,993.30
2019-03-08T06:26:49.129Z,993.29
2019-03-08T06:27:49.149Z,993.28
2019-03-08T06:28:49.126Z,993.34
2019-03-08T06:29:49.107Z,993.20
2019-03-08T06:30:49.106Z,993.24
2019-03-08T06:31:49.075Z,993.30
2019-03-08T06:32:49.079Z,993.27
2019-03-08T06:33:49.066Z,993.40
2019-03-08T06:34:49.051Z,993.39
2019-03-08T06:35:49.042Z,993.37
2019-03-08T06:36:49.032Z,993.47
2019-03-08T06:37:49.016Z,993.39
2019-03-08T06:38:49.029Z,993.54
2019-03-08T06:39:48.993Z,993.37
2019-03-08T06:40:49.016Z,993.54
2019-03-08T06:41:48.969Z,993.49
2019-03-08T06:42:48.959Z,993.66
2019-03-08T06:43:48.977Z,993.64
2019-03-08T06:44:48.934Z,993.64
2019-03-08T06:45:48.931Z,993.66
2019-03-08T06:46:48.916Z,993.60
2019-03-08T06:47:48.919Z,993.86
2019-03-08T06:48:48.926Z,993.85
2019-03-08T06:49:48.875Z,993.62
2019-03-08T06:50:48.867Z,993.65
2019-03-08T06:51:48.853Z,993.84
2019-03-08T06:52:48.843Z,993.95
2019-03-08T06:53:48.848Z,994.04
2019-03-08T06:54:48.814Z,993.77
2019-03-08T06:55:48.812Z,993.89
2019-03-08T06:56:48.808Z,993.81
2019-03-08T06:57:48.792Z,993.73
2019-03-08T06:58:48.811Z,994.06
2019-03-08T06:59:48.762Z,994.06
2019-03-08T07:00:48.754Z,994.07
2019-03-08T07:01:48.765Z,993.97
2019-03-08T07:02:48.732Z,994.14
2019-03-08T07:03:48.716Z,994.06
2019-03-08T07:04:48.758Z,994.08
2019-03-08T07:05:48.693Z,994.12
2019-03-08T07:06:48.704Z,993.98
2019-03-08T07:07:48.684Z,994.29
2019-03-08T07:08:48.669Z,994.07
2019-03-08T07:09:48.678Z,994.23
2019-03-08T07:10:48.641Z,994.26
2019-03-08T07:11:48.632Z,994.22
2019-03-08T07:12:48.665Z,994.21
2019-03-08T07:13:48.638Z,994.33
2019-03-08T07:14:48.614Z,994.22
2019-03-08T07:15:48.583Z,994.24
2019-03-08T07:16:48.568Z,994.28
2019-03-08T07:17:48.570Z,994.37
2019-03-08T07:18:48.551Z,994.34
2019-03-08T07:19:48.559Z,994.33
2019-03-08T07:20:48.568Z,994.39
2019-03-08T07:21:48.522Z,994.38
2019-03-08T07:22:48.510Z,994.58
2019-03-08T07:23:48.502Z,994.36
2019-03-08T07:24:48.520Z,994.31
2019-03-08T07:25:52.532Z,994.55
2019-03-08T07:26:49.464Z,994.47
2019-03-08T07:27:48.450Z,994.56
2019-03-08T07:28:48.452Z,994.40
2019-03-08T07:29:48.492Z,994.49
2019-03-08T07:30:57.295Z,994.58
2019-03-08T07:31:49.405Z,994.36
2019-03-08T07:32:48.393Z,994.53
2019-03-08T07:33:53.061Z,994.75
2019-03-08T07:34:49.399Z,994.66
2019-03-08T07:35:48.372Z,994.54
2019-03-08T07:36:48.375Z,994.85
2019-03-08T07:37:48.343Z,994.47
2019-03-08T07:38:48.328Z,994.44
2019-03-08T07:39:48.319Z,994.71
2019-03-08T07:40:48.353Z,994.59
2019-03-08T07:41:48.295Z,994.71
2019-03-08T07:42:48.296Z,994.61
2019-03-08T07:43:48.273Z,994.89
2019-03-08T07:44:48.269Z,994.91
2019-03-08T07:45:48.289Z,994.83
2019-03-08T07:46:48.259Z,994.89
2019-03-08T07:47:48.229Z,994.96
2019-03-08T07:48:48.226Z,994.99
2019-03-08T07:49:48.221Z,994.97
2019-03-08T07:50:48.223Z,994.79
2019-03-08T07:51:48.188Z,994.89
2019-03-08T07:52:48.174Z,994.91
2019-03-08T07:53:48.173Z,995.13
2019-03-08T07:54:52.895Z,995.11
2019-03-08T07:55:49.153Z,994.98
2019-03-08T07:56:48.135Z,995.21
2019-03-08T07:57:48.118Z,995.15
2019-03-08T07:58:48.117Z,995.03
2019-03-08T07:59:53.579Z,995.17
2019-03-08T08:00:49.105Z,995.18
2019-03-08T08:01:48.075Z,995.09
2019-03-08T08:02:48.060Z,995.21
2019-03-08T08:03:48.063Z,995.20
2019-03-08T08:04:48.048Z,995.13
2019-03-08T08:05:57.337Z,995.23
2019-03-08T08:06:49.028Z,995.20
2019-03-08T08:07:48.009Z,995.39
2019-03-08T08:08:51.706Z,995.37
2019-03-08T08:09:48.008Z,995.32
2019-03-08T08:10:47.990Z,995.39
2019-03-08T08:11:48.020Z,995.30
2019-03-08T08:12:47.988Z,995.44
2019-03-08T08:13:47.961Z,995.46
2019-03-08T08:14:47.941Z,995.31
2019-03-08T08:15:47.923Z,995.53
2019-03-08T08:16:47.924Z,995.50
2019-03-08T08:17:47.899Z,995.61
2019-03-08T08:18:47.897Z,995.62
2019-03-08T08:19:47.877Z,995.68
2019-03-08T08:20:47.887Z,995.86
2019-03-08T08:21:47.886Z,995.64
2019-03-08T08:22:47.884Z,995.89
2019-03-08T08:23:47.834Z,995.88
2019-03-08T08:24:47.847Z,995.81
2019-03-08T08:25:47.813Z,995.66
2019-03-08T08:26:47.813Z,995.84
2019-03-08T08:27:47.816Z,995.71
2019-03-08T08:28:50.178Z,995.93
2019-03-08T08:29:47.763Z,995.82
2019-03-08T08:30:47.750Z,995.80
2019-03-08T08:31:47.750Z,995.87
2019-03-08T08:32:47.774Z,995.93
2019-03-08T08:33:47.748Z,995.86
2019-03-08T08:34:47.707Z,996.07
2019-03-08T08:35:47.690Z,995.92
2019-03-08T08:36:47.699Z,995.91
2019-03-08T08:37:47.701Z,996.03
2019-03-08T08:38:47.670Z,996.17
2019-03-08T08:39:47.675Z,996.13
2019-03-08T08:40:47.636Z,996.19
2019-03-08T08:41:47.638Z,996.21
2019-03-08T08:42:47.652Z,996.44
2019-03-08T08:43:47.608Z,996.33
2019-03-08T08:44:47.604Z,996.39
2019-03-08T08:45:47.596Z,996.19
2019-03-08T08:46:47.576Z,996.34
2019-03-08T08:47:47.571Z,996.27
2019-03-08T08:48:47.564Z,996.46
2019-03-08T08:49:54.244Z,996.51
2019-03-08T08:50:48.526Z,996.44
2019-03-08T08:51:47.546Z,996.44
2019-03-08T08:52:47.511Z,996.48
2019-03-08T08:53:47.552Z,996.35
2019-03-08T08:54:47.519Z,996.54
2019-03-08T08:55:47.483Z,996.52
2019-03-08T08:56:47.462Z,996.86
2019-03-08T08:57:47.475Z,996.84
2019-03-08T08:58:47.472Z,996.81
2019-03-08T08:59:47.434Z,996.57
2019-03-08T09:00:47.456Z,996.66
2019-03-08T09:01:47.415Z,996.73
2019-03-08T09:02:47.396Z,996.63
2019-03-08T09:03:47.509Z,996.71
2019-03-08T09:04:47.378Z,996.70
2019-03-08T09:05:47.362Z,996.61
2019-03-08T09:06:47.352Z,996.80
2019-03-08T09:07:47.345Z,996.69
2019-03-08T09:08:47.447Z,996.74
2019-03-08T09:09:47.357Z,996.99
2019-03-08T09:10:47.323Z,996.79
2019-03-08T09:11:52.562Z,996.99
2019-03-08T09:12:48.285Z,996.98
2019-03-08T09:13:47.299Z,996.86
2019-03-08T09:14:47.297Z,996.82
2019-03-08T09:15:47.251Z,996.88
2019-03-08T09:16:47.254Z,997.19
2019-03-08T09:17:47.238Z,997.12
2019-03-08T09:18:47.232Z,996.99
2019-03-08T09:19:47.242Z,997.00
2019-03-08T09:20:47.205Z,996.78
2019-03-08T09:21:47.207Z,996.98
2019-03-08T09:22:47.183Z,997.16
2019-03-08T09:23:47.170Z,997.13
2019-03-08T09:24:47.182Z,997.10
2019-03-08T09:25:47.139Z,997.20
2019-03-08T09:26:47.131Z,997.28
2019-03-08T09:27:47.127Z,997.23
2019-03-08T09:28:47.127Z,997.27
2019-03-08T09:29:47.116Z,997.28
2019-03-08T09:30:47.091Z,997.31
2019-03-08T09:31:47.079Z,997.51
2019-03-08T09:32:47.068Z,997.50
2019-03-08T09:33:47.056Z,997.60
2019-03-08T09:34:47.061Z,997.45
2019-03-08T09:35:47.039Z,997.49
2019-03-08T09:36:47.016Z,997.57
2019-03-08T09:37:47.011Z,997.80
2019-03-08T09:38:47.001Z,997.82
2019-03-08T09:39:47.026Z,997.68
2019-03-08T09:40:46.988Z,997.90
2019-03-08T09:41:46.968Z,998.09
2019-03-08T09:42:46.955Z,997.91
2019-03-08T09:43:46.951Z,997.89
2019-03-08T09:44:46.967Z,997.99
2019-03-08T09:45:46.922Z,997.83
2019-03-08T09:46:46.906Z,997.89
2019-03-08T09:47:46.933Z,997.90
2019-03-08T09:48:48.916Z,997.88
2019-03-08T09:49:46.920Z,998.15
2019-03-08T09:50:46.876Z,998.11
2019-03-08T09:51:46.864Z,998.15
2019-03-08T09:52:46.845Z,998.11
2019-03-08T09:53:46.838Z,998.10
2019-03-08T09:54:46.830Z,998.17
2019-03-08T09:55:46.830Z,998.08
2019-03-08T09:56:46.807Z,998.10
2019-03-08T09:57:46.785Z,998.19
2019-03-08T09:58:46.776Z,998.18
2019-03-08T09:59:46.766Z,998.31
2019-03-08T10:00:47.914Z,998.27
2019-03-08T10:01:46.742Z,998.29
2019-03-08T10:02:46.756Z,998.36
2019-03-08T10:03:46.782Z,998.48
2019-03-08T10:04:46.722Z,998.61
2019-03-08T10:05:46.718Z,998.51
2019-03-08T10:06:46.694Z,998.63
2019-03-08T10:07:46.688Z,998.71
2019-03-08T10:08:46.702Z,998.55
2019-03-08T10:09:46.668Z,998.84
2019-03-08T10:10:46.690Z,998.74
2019-03-08T10:11:46.640Z,998.84
2019-03-08T10:12:46.623Z,998.85
2019-03-08T10:13:46.617Z,998.85
2019-03-08T10:14:46.614Z,998.80
2019-03-08T10:15:46.602Z,998.89
2019-03-08T10:16:46.572Z,998.92
2019-03-08T10:17:46.583Z,998.85
2019-03-08T10:18:46.560Z,998.89
2019-03-08T10:19:46.558Z,998.81
2019-03-08T10:20:46.563Z,998.88
2019-03-08T10:21:46.545Z,998.93
2019-03-08T10:22:46.510Z,998.89
2019-03-08T10:23:46.498Z,998.80
2019-03-08T10:24:46.490Z,998.84
2019-03-08T10:25:46.476Z,998.86
2019-03-08T10:26:46.511Z,998.86
2019-03-08T10:27:46.451Z,998.89
2019-03-08T10:28:46.453Z,998.90
2019-03-08T10:29:46.430Z,998.93
2019-03-08T10:30:46.421Z,999.11
2019-03-08T10:31:46.432Z,999.02
2019-03-08T10:32:46.397Z,999.10
2019-03-08T10:33:46.918Z,999.31
2019-03-08T10:34:46.389Z,999.26
2019-03-08T10:35:46.388Z,999.07
2019-03-08T10:36:46.385Z,999.16
2019-03-08T10:37:46.350Z,999.22
2019-03-08T10:38:46.397Z,999.14
2019-03-08T10:39:46.333Z,999.21
2019-03-08T10:40:46.321Z,999.20
2019-03-08T10:41:46.341Z,999.11
2019-03-08T10:42:46.281Z,999.30
2019-03-08T10:43:46.282Z,999.43
2019-03-08T10:44:46.268Z,999.42
2019-03-08T10:45:46.263Z,999.47
2019-03-08T10:46:46.238Z,999.38
2019-03-08T10:47:55.592Z,999.42
2019-03-08T10:48:47.222Z,999.29
2019-03-08T10:49:54.707Z,999.45
2019-03-08T10:50:47.200Z,999.47
2019-03-08T10:51:46.181Z,999.34
2019-03-08T10:52:46.197Z,999.37
2019-03-08T10:53:46.163Z,999.39
2019-03-08T10:54:46.158Z,999.55
2019-03-08T10:55:46.148Z,999.56
2019-03-08T10:56:46.135Z,999.53
2019-03-08T10:57:46.232Z,999.71
2019-03-08T10:58:46.136Z,999.77
2019-03-08T10:59:46.121Z,999.80
2019-03-08T11:00:46.112Z,999.96
2019-03-08T11:01:46.099Z,1000.46
2019-03-08T11:02:48.121Z,1000.49
2019-03-08T11:03:46.078Z,1000.51
2019-03-08T11:04:46.075Z,1000.58
2019-03-08T11:05:46.034Z,1000.40
2019-03-08T11:06:46.037Z,1000.46
2019-03-08T11:07:46.034Z,1000.32
2019-03-08T11:08:46.000Z,1000.49
2019-03-08T11:09:45.987Z,1000.41
2019-03-08T11:10:45.983Z,1000.33
2019-03-08T11:11:45.960Z,1000.32
2019-03-08T11:12:45.974Z,1000.39
2019-03-08T11:13:45.937Z,1000.36
2019-03-08T11:14:45.936Z,1000.27
2019-03-08T11:15:46.902Z,1000.38
2019-03-08T11:16:45.918Z,1000.49
2019-03-08T11:17:50.735Z,1000.47
2019-03-08T11:18:46.900Z,1000.33
2019-03-08T11:19:45.872Z,1000.48
2019-03-08T11:20:46.517Z,1000.49
2019-03-08T11:21:45.860Z,1000.50
2019-03-08T11:22:45.880Z,1000.52
2019-03-08T11:23:45.829Z,1000.58
2019-03-08T11:24:45.818Z,1000.58
2019-03-08T11:25:45.810Z,1000.71
2019-03-08T11:26:45.809Z,1000.72
2019-03-08T11:27:45.831Z,1000.76
2019-03-08T11:28:45.788Z,1000.81
2019-03-08T11:29:45.771Z,1000.70
2019-03-08T11:30:53.794Z,1000.64
2019-03-08T11:31:46.737Z,1000.65
2019-03-08T11:32:46.399Z,1000.66
2019-03-08T11:33:45.734Z,1000.92
2019-03-08T11:34:51.914Z,1000.83
2019-03-08T11:35:46.704Z,1000.85
2019-03-08T11:36:45.692Z,1000.81
2019-03-08T11:37:45.685Z,1000.83
2019-03-08T11:38:45.695Z,1000.84
2019-03-08T11:39:45.658Z,1000.90
2019-03-08T11:40:45.647Z,1000.85
2019-03-08T11:41:45.629Z,1001.20
2019-03-08T11:42:45.628Z,1000.89
2019-03-08T11:43:45.620Z,1000.98
2019-03-08T11:44:45.605Z,1001.20
2019-03-08T11:45:45.596Z,1001.15
2019-03-08T11:46:45.600Z,1001.18
2019-03-08T11:47:45.572Z,1000.97
2019-03-08T11:48:45.576Z,1001.18
2019-03-08T11:49:45.544Z,1001.12
2019-03-08T11:50:45.548Z,1001.28
2019-03-08T11:51:45.528Z,1001.21
2019-03-08T11:52:45.506Z,1001.15
2019-03-08T11:53:45.527Z,1001.08
2019-03-08T11:54:45.488Z,1001.10
2019-03-08T11:55:45.473Z,1001.17
2019-03-08T11:56:45.472Z,1000.92
2019-03-08T11:57:45.457Z,1001.13
2019-03-08T11:58:45.469Z,1001.24
2019-03-08T11:59:45.448Z,1001.26
2019-03-08T12:00:45.425Z,1001.22
2019-03-08T12:01:45.411Z,1001.15
2019-03-08T12:02:45.394Z,1001.31
2019-03-08T12:03:45.423Z,1001.22
2019-03-08T12:04:45.400Z,1001.19
2019-03-08T12:05:45.384Z,1001.32
2019-03-08T12:06:45.357Z,1001.28
2019-03-08T12:07:47.286Z,1001.27
2019-03-08T12:08:45.362Z,1001.49
2019-03-08T12:09:45.337Z,1001.30
2019-03-08T12:10:45.317Z,1001.15
2019-03-08T12:11:45.293Z,1001.21
2019-03-08T12:12:46.622Z,1001.28
2019-03-08T12:13:45.300Z,1001.37
2019-03-08T12:14:45.279Z,1001.13
2019-03-08T12:15:45.255Z,1001.23
2019-03-08T12:16:45.261Z,1001.28
2019-03-08T12:17:45.231Z,1001.40
2019-03-08T12:18:45.236Z,1001.57
2019-03-08T12:19:45.244Z,1001.48
2019-03-08T12:20:45.199Z,1001.31
2019-03-08T12:21:45.190Z,1001.76
2019-03-08T12:22:45.169Z,1001.36
2019-03-08T12:23:45.165Z,1001.39
2019-03-08T12:24:45.168Z,1001.37
2019-03-08T12:25:45.152Z,1001.35